sensor_id;sensor_type;location;lat;lon;timestamp;P1;durP1;ratioP1;P2;durP2;ratioP2
17886;SDS011;9069;52.044;7.472;2022-10-16T00:00:55;3.97;;;2.60;;
17886;SDS011;9069;52.044;7.472;2022-10-16T00:03:21;4.55;;;2.55;;
17886;SDS011;9069;52.044;7.472;2022-10-16T00:05:58;4.47;;;2.90;;
17886;SDS011;9069;52.044;7.472;2022-10-16T00:08:26;4.00;;;1.98;;
17886;SDS011;9069;52.044;7.472;2022-10-16T00:10:58;7.28;;;2.90;;
17886;SDS011;9069;52.044;7.472;2022-10-16T00:13:26;6.93;;;3.15;;
17886;SDS011;9069;52.044;7.472;2022-10-16T00:15:54;5.63;;;3.00;;
17886;SDS011;9069;52.044;7.472;2022-10-16T00:18:25;4.22;;;2.45;;
17886;SDS011;9069;52.044;7.472;2022-10-16T00:20:54;4.90;;;2.83;;
17886;SDS011;9069;52.044;7.472;2022-10-16T00:23:26;3.83;;;2.55;;
17886;SDS011;9069;52.044;7.472;2022-10-16T00:25:59;6.03;;;2.60;;
17886;SDS011;9069;52.044;7.472;2022-10-16T00:28:28;5.35;;;3.03;;
17886;SDS011;9069;52.044;7.472;2022-10-16T00:30:55;5.43;;;3.17;;
17886;SDS011;9069;52.044;7.472;2022-10-16T00:33:22;6.93;;;2.72;;
17886;SDS011;9069;52.044;7.472;2022-10-16T00:35:49;7.50;;;3.20;;
17886;SDS011;9069;52.044;7.472;2022-10-16T00:38:16;3.72;;;2.90;;
17886;SDS011;9069;52.044;7.472;2022-10-16T00:40:43;5.95;;;2.90;;
17886;SDS011;9069;52.044;7.472;2022-10-16T00:43:13;5.28;;;3.22;;
17886;SDS011;9069;52.044;7.472;2022-10-16T00:45:59;6.93;;;3.30;;
17886;SDS011;9069;52.044;7.472;2022-10-16T00:48:26;7.80;;;3.60;;
17886;SDS011;9069;52.044;7.472;2022-10-16T00:50:53;8.88;;;3.40;;
17886;SDS011;9069;52.044;7.472;2022-10-16T00:53:20;5.47;;;3.22;;
17886;SDS011;9069;52.044;7.472;2022-10-16T00:55:48;6.22;;;3.25;;
17886;SDS011;9069;52.044;7.472;2022-10-16T00:58:14;4.22;;;2.97;;
17886;SDS011;9069;52.044;7.472;2022-10-16T01:00:41;4.43;;;2.80;;
17886;SDS011;9069;52.044;7.472;2022-10-16T01:09:03;4.63;;;3.00;;
17886;SDS011;9069;52.044;7.472;2022-10-16T01:14:58;4.55;;;3.25;;
17886;SDS011;9069;52.044;7.472;2022-10-16T01:17:38;6.72;;;3.30;;
17886;SDS011;9069;52.044;7.472;2022-10-16T01:23:04;4.05;;;3.17;;
17886;SDS011;9069;52.044;7.472;2022-10-16T01:28:20;7.57;;;3.40;;
17886;SDS011;9069;52.044;7.472;2022-10-16T01:30:52;6.20;;;3.10;;
17886;SDS011;9069;52.044;7.472;2022-10-16T01:33:29;3.85;;;3.03;;
17886;SDS011;9069;52.044;7.472;2022-10-16T01:36:21;4.20;;;3.28;;
17886;SDS011;9069;52.044;7.472;2022-10-16T01:38:52;8.30;;;3.03;;
17886;SDS011;9069;52.044;7.472;2022-10-16T01:41:27;7.13;;;3.15;;
17886;SDS011;9069;52.044;7.472;2022-10-16T01:44:01;3.80;;;2.90;;
17886;SDS011;9069;52.044;7.472;2022-10-16T01:46:32;5.18;;;3.10;;
17886;SDS011;9069;52.044;7.472;2022-10-16T01:49:02;6.22;;;3.38;;
17886;SDS011;9069;52.044;7.472;2022-10-16T01:51:30;7.68;;;3.30;;
17886;SDS011;9069;52.044;7.472;2022-10-16T01:53:57;4.60;;;3.20;;
17886;SDS011;9069;52.044;7.472;2022-10-16T01:56:27;3.95;;;2.97;;
17886;SDS011;9069;52.044;7.472;2022-10-16T01:58:56;10.27;;;3.70;;
17886;SDS011;9069;52.044;7.472;2022-10-16T02:01:30;4.63;;;3.25;;
17886;SDS011;9069;52.044;7.472;2022-10-16T02:04:00;4.35;;;3.53;;
17886;SDS011;9069;52.044;7.472;2022-10-16T02:06:33;5.43;;;3.13;;
17886;SDS011;9069;52.044;7.472;2022-10-16T02:09:00;13.13;;;3.80;;
17886;SDS011;9069;52.044;7.472;2022-10-16T02:11:27;6.60;;;3.80;;
17886;SDS011;9069;52.044;7.472;2022-10-16T02:14:12;5.70;;;3.25;;
17886;SDS011;9069;52.044;7.472;2022-10-16T02:16:40;7.95;;;3.00;;
17886;SDS011;9069;52.044;7.472;2022-10-16T02:19:11;4.95;;;3.28;;
17886;SDS011;9069;52.044;7.472;2022-10-16T02:21:49;5.97;;;3.70;;
17886;SDS011;9069;52.044;7.472;2022-10-16T02:24:40;8.43;;;3.42;;
17886;SDS011;9069;52.044;7.472;2022-10-16T02:30:06;7.00;;;3.70;;
17886;SDS011;9069;52.044;7.472;2022-10-16T02:32:39;5.25;;;3.30;;
17886;SDS011;9069;52.044;7.472;2022-10-16T02:35:08;6.75;;;3.45;;
17886;SDS011;9069;52.044;7.472;2022-10-16T02:37:35;3.75;;;3.08;;
17886;SDS011;9069;52.044;7.472;2022-10-16T02:40:04;8.13;;;3.28;;
17886;SDS011;9069;52.044;7.472;2022-10-16T02:42:34;4.85;;;3.17;;
17886;SDS011;9069;52.044;7.472;2022-10-16T02:45:02;5.50;;;3.40;;
17886;SDS011;9069;52.044;7.472;2022-10-16T02:47:30;6.07;;;3.53;;
17886;SDS011;9069;52.044;7.472;2022-10-16T02:49:56;5.95;;;3.80;;
17886;SDS011;9069;52.044;7.472;2022-10-16T02:52:23;5.72;;;2.78;;
17886;SDS011;9069;52.044;7.472;2022-10-16T02:54:50;7.18;;;3.83;;
17886;SDS011;9069;52.044;7.472;2022-10-16T02:57:18;4.00;;;2.53;;
17886;SDS011;9069;52.044;7.472;2022-10-16T02:59:45;3.85;;;3.20;;
17886;SDS011;9069;52.044;7.472;2022-10-16T03:02:11;6.55;;;3.47;;
17886;SDS011;9069;52.044;7.472;2022-10-16T03:04:38;6.28;;;2.92;;
17886;SDS011;9069;52.044;7.472;2022-10-16T03:07:05;7.53;;;3.42;;
17886;SDS011;9069;52.044;7.472;2022-10-16T03:09:32;6.68;;;3.35;;
17886;SDS011;9069;52.044;7.472;2022-10-16T03:11:58;5.95;;;2.88;;
17886;SDS011;9069;52.044;7.472;2022-10-16T03:14:25;4.85;;;2.78;;
17886;SDS011;9069;52.044;7.472;2022-10-16T03:16:57;3.83;;;3.25;;
17886;SDS011;9069;52.044;7.472;2022-10-16T03:19:23;3.33;;;2.88;;
17886;SDS011;9069;52.044;7.472;2022-10-16T03:21:50;4.03;;;2.60;;
17886;SDS011;9069;52.044;7.472;2022-10-16T03:24:17;4.18;;;2.88;;
17886;SDS011;9069;52.044;7.472;2022-10-16T03:26:43;4.30;;;2.72;;
17886;SDS011;9069;52.044;7.472;2022-10-16T03:29:10;5.10;;;2.85;;
17886;SDS011;9069;52.044;7.472;2022-10-16T03:31:37;5.32;;;3.13;;
17886;SDS011;9069;52.044;7.472;2022-10-16T03:34:03;4.03;;;3.13;;
17886;SDS011;9069;52.044;7.472;2022-10-16T03:36:30;3.22;;;2.75;;
17886;SDS011;9069;52.044;7.472;2022-10-16T03:38:57;4.15;;;2.53;;
17886;SDS011;9069;52.044;7.472;2022-10-16T03:41:23;3.78;;;2.92;;
17886;SDS011;9069;52.044;7.472;2022-10-16T03:43:50;6.97;;;3.65;;
17886;SDS011;9069;52.044;7.472;2022-10-16T03:46:17;5.35;;;2.80;;
17886;SDS011;9069;52.044;7.472;2022-10-16T03:48:43;4.00;;;2.47;;
17886;SDS011;9069;52.044;7.472;2022-10-16T03:51:10;4.88;;;3.00;;
17886;SDS011;9069;52.044;7.472;2022-10-16T03:53:37;3.35;;;2.80;;
17886;SDS011;9069;52.044;7.472;2022-10-16T03:56:03;5.40;;;2.70;;
17886;SDS011;9069;52.044;7.472;2022-10-16T03:58:30;5.30;;;2.60;;
17886;SDS011;9069;52.044;7.472;2022-10-16T04:00:57;5.68;;;2.67;;
17886;SDS011;9069;52.044;7.472;2022-10-16T04:03:23;4.75;;;2.63;;
17886;SDS011;9069;52.044;7.472;2022-10-16T04:05:50;4.18;;;2.53;;
17886;SDS011;9069;52.044;7.472;2022-10-16T04:08:17;4.50;;;2.28;;
17886;SDS011;9069;52.044;7.472;2022-10-16T04:10:44;6.60;;;2.63;;
17886;SDS011;9069;52.044;7.472;2022-10-16T04:13:11;4.13;;;2.85;;
17886;SDS011;9069;52.044;7.472;2022-10-16T04:15:38;5.75;;;2.80;;
17886;SDS011;9069;52.044;7.472;2022-10-16T04:18:05;2.75;;;2.25;;
17886;SDS011;9069;52.044;7.472;2022-10-16T04:20:32;3.13;;;2.50;;
17886;SDS011;9069;52.044;7.472;2022-10-16T04:22:59;3.17;;;2.65;;
17886;SDS011;9069;52.044;7.472;2022-10-16T04:25:26;5.00;;;2.63;;
17886;SDS011;9069;52.044;7.472;2022-10-16T04:27:53;3.58;;;2.22;;
17886;SDS011;9069;52.044;7.472;2022-10-16T04:30:21;5.78;;;2.55;;
17886;SDS011;9069;52.044;7.472;2022-10-16T04:32:51;2.78;;;2.13;;
17886;SDS011;9069;52.044;7.472;2022-10-16T04:35:19;3.63;;;2.33;;
17886;SDS011;9069;52.044;7.472;2022-10-16T04:37:47;2.72;;;1.88;;
17886;SDS011;9069;52.044;7.472;2022-10-16T04:40:14;2.15;;;1.90;;
17886;SDS011;9069;52.044;7.472;2022-10-16T04:42:41;2.53;;;2.00;;
17886;SDS011;9069;52.044;7.472;2022-10-16T04:45:07;2.65;;;1.67;;
17886;SDS011;9069;52.044;7.472;2022-10-16T04:47:40;3.92;;;2.22;;
17886;SDS011;9069;52.044;7.472;2022-10-16T04:50:06;4.28;;;2.13;;
17886;SDS011;9069;52.044;7.472;2022-10-16T04:52:33;2.17;;;1.88;;
17886;SDS011;9069;52.044;7.472;2022-10-16T04:55:05;3.65;;;1.95;;
17886;SDS011;9069;52.044;7.472;2022-10-16T04:57:33;2.17;;;1.85;;
17886;SDS011;9069;52.044;7.472;2022-10-16T04:59:59;4.03;;;1.75;;
17886;SDS011;9069;52.044;7.472;2022-10-16T05:02:26;2.90;;;1.50;;
17886;SDS011;9069;52.044;7.472;2022-10-16T05:04:53;3.25;;;1.80;;
17886;SDS011;9069;52.044;7.472;2022-10-16T05:07:19;3.65;;;1.88;;
17886;SDS011;9069;52.044;7.472;2022-10-16T05:09:46;1.65;;;1.55;;
17886;SDS011;9069;52.044;7.472;2022-10-16T05:12:13;2.17;;;1.75;;
17886;SDS011;9069;52.044;7.472;2022-10-16T05:14:39;2.53;;;1.77;;
17886;SDS011;9069;52.044;7.472;2022-10-16T05:17:06;3.75;;;2.10;;
17886;SDS011;9069;52.044;7.472;2022-10-16T05:19:33;2.42;;;1.60;;
17886;SDS011;9069;52.044;7.472;2022-10-16T05:21:59;2.72;;;1.73;;
17886;SDS011;9069;52.044;7.472;2022-10-16T05:24:26;3.08;;;2.17;;
17886;SDS011;9069;52.044;7.472;2022-10-16T05:26:53;3.67;;;2.00;;
17886;SDS011;9069;52.044;7.472;2022-10-16T05:29:20;2.00;;;1.80;;
17886;SDS011;9069;52.044;7.472;2022-10-16T05:31:49;3.40;;;1.60;;
17886;SDS011;9069;52.044;7.472;2022-10-16T05:34:16;1.95;;;1.58;;
17886;SDS011;9069;52.044;7.472;2022-10-16T05:36:43;1.92;;;1.60;;
17886;SDS011;9069;52.044;7.472;2022-10-16T05:39:11;2.28;;;1.92;;
17886;SDS011;9069;52.044;7.472;2022-10-16T05:41:39;3.83;;;1.73;;
17886;SDS011;9069;52.044;7.472;2022-10-16T05:44:06;2.03;;;1.73;;
17886;SDS011;9069;52.044;7.472;2022-10-16T05:46:33;2.80;;;1.85;;
17886;SDS011;9069;52.044;7.472;2022-10-16T05:48:59;3.88;;;1.80;;
17886;SDS011;9069;52.044;7.472;2022-10-16T05:51:26;2.90;;;1.90;;
17886;SDS011;9069;52.044;7.472;2022-10-16T05:53:53;2.72;;;1.70;;
17886;SDS011;9069;52.044;7.472;2022-10-16T05:56:19;2.00;;;1.80;;
17886;SDS011;9069;52.044;7.472;2022-10-16T05:58:46;2.28;;;1.67;;
17886;SDS011;9069;52.044;7.472;2022-10-16T06:01:14;2.63;;;1.42;;
17886;SDS011;9069;52.044;7.472;2022-10-16T06:03:44;2.78;;;1.38;;
17886;SDS011;9069;52.044;7.472;2022-10-16T06:06:15;1.55;;;1.38;;
17886;SDS011;9069;52.044;7.472;2022-10-16T06:08:44;1.58;;;1.20;;
17886;SDS011;9069;52.044;7.472;2022-10-16T06:11:12;2.70;;;1.48;;
17886;SDS011;9069;52.044;7.472;2022-10-16T06:13:41;2.47;;;1.40;;
17886;SDS011;9069;52.044;7.472;2022-10-16T06:16:09;3.33;;;1.10;;
17886;SDS011;9069;52.044;7.472;2022-10-16T06:18:36;1.98;;;1.17;;
17886;SDS011;9069;52.044;7.472;2022-10-16T06:21:07;1.63;;;1.10;;
17886;SDS011;9069;52.044;7.472;2022-10-16T06:23:36;4.30;;;1.60;;
17886;SDS011;9069;52.044;7.472;2022-10-16T06:26:07;2.10;;;1.30;;
17886;SDS011;9069;52.044;7.472;2022-10-16T06:28:35;4.35;;;1.40;;
17886;SDS011;9069;52.044;7.472;2022-10-16T06:31:02;1.35;;;1.25;;
17886;SDS011;9069;52.044;7.472;2022-10-16T06:33:34;1.52;;;1.42;;
17886;SDS011;9069;52.044;7.472;2022-10-16T06:36:01;2.13;;;1.08;;
17886;SDS011;9069;52.044;7.472;2022-10-16T06:38:31;1.70;;;1.38;;
17886;SDS011;9069;52.044;7.472;2022-10-16T06:40:58;1.58;;;1.20;;
17886;SDS011;9069;52.044;7.472;2022-10-16T06:43:25;1.38;;;1.10;;
17886;SDS011;9069;52.044;7.472;2022-10-16T06:45:53;1.50;;;1.35;;
17886;SDS011;9069;52.044;7.472;2022-10-16T06:48:23;1.63;;;1.25;;
17886;SDS011;9069;52.044;7.472;2022-10-16T06:51:01;2.63;;;1.30;;
17886;SDS011;9069;52.044;7.472;2022-10-16T06:53:35;2.13;;;1.20;;
17886;SDS011;9069;52.044;7.472;2022-10-16T06:56:13;1.30;;;1.20;;
17886;SDS011;9069;52.044;7.472;2022-10-16T06:58:43;4.35;;;1.40;;
17886;SDS011;9069;52.044;7.472;2022-10-16T07:01:10;2.47;;;1.45;;
17886;SDS011;9069;52.044;7.472;2022-10-16T07:03:39;1.58;;;1.40;;
17886;SDS011;9069;52.044;7.472;2022-10-16T07:06:08;2.08;;;1.50;;
17886;SDS011;9069;52.044;7.472;2022-10-16T07:08:36;1.52;;;1.25;;
17886;SDS011;9069;52.044;7.472;2022-10-16T07:11:05;2.80;;;1.40;;
17886;SDS011;9069;52.044;7.472;2022-10-16T07:13:34;2.05;;;1.10;;
17886;SDS011;9069;52.044;7.472;2022-10-16T07:16:09;1.83;;;1.10;;
17886;SDS011;9069;52.044;7.472;2022-10-16T07:18:43;4.63;;;1.30;;
17886;SDS011;9069;52.044;7.472;2022-10-16T07:21:13;2.05;;;1.30;;
17886;SDS011;9069;52.044;7.472;2022-10-16T07:23:45;1.60;;;1.10;;
17886;SDS011;9069;52.044;7.472;2022-10-16T07:26:16;2.22;;;1.40;;
17886;SDS011;9069;52.044;7.472;2022-10-16T07:28:43;2.08;;;1.13;;
17886;SDS011;9069;52.044;7.472;2022-10-16T07:31:13;3.17;;;1.38;;
17886;SDS011;9069;52.044;7.472;2022-10-16T07:33:41;5.68;;;1.55;;
17886;SDS011;9069;52.044;7.472;2022-10-16T07:36:10;1.60;;;1.05;;
17886;SDS011;9069;52.044;7.472;2022-10-16T07:38:41;1.35;;;1.08;;
17886;SDS011;9069;52.044;7.472;2022-10-16T07:41:09;4.47;;;1.70;;
17886;SDS011;9069;52.044;7.472;2022-10-16T07:43:38;3.40;;;1.30;;
17886;SDS011;9069;52.044;7.472;2022-10-16T07:46:05;2.85;;;1.20;;
17886;SDS011;9069;52.044;7.472;2022-10-16T07:48:33;2.33;;;1.20;;
17886;SDS011;9069;52.044;7.472;2022-10-16T07:51:01;2.08;;;1.30;;
17886;SDS011;9069;52.044;7.472;2022-10-16T07:53:29;3.03;;;1.50;;
17886;SDS011;9069;52.044;7.472;2022-10-16T07:55:58;3.53;;;1.50;;
17886;SDS011;9069;52.044;7.472;2022-10-16T07:58:26;2.80;;;1.30;;
17886;SDS011;9069;52.044;7.472;2022-10-16T08:00:54;7.72;;;3.10;;
17886;SDS011;9069;52.044;7.472;2022-10-16T08:03:22;4.32;;;2.33;;
17886;SDS011;9069;52.044;7.472;2022-10-16T08:05:49;2.05;;;1.50;;
17886;SDS011;9069;52.044;7.472;2022-10-16T08:08:17;1.50;;;1.40;;
17886;SDS011;9069;52.044;7.472;2022-10-16T08:10:44;2.60;;;1.40;;
17886;SDS011;9069;52.044;7.472;2022-10-16T08:13:11;2.53;;;1.30;;
17886;SDS011;9069;52.044;7.472;2022-10-16T08:15:42;2.22;;;1.40;;
17886;SDS011;9069;52.044;7.472;2022-10-16T08:18:09;1.63;;;1.10;;
17886;SDS011;9069;52.044;7.472;2022-10-16T08:20:38;2.55;;;1.48;;
17886;SDS011;9069;52.044;7.472;2022-10-16T08:23:07;2.17;;;1.27;;
17886;SDS011;9069;52.044;7.472;2022-10-16T08:25:37;3.85;;;1.38;;
17886;SDS011;9069;52.044;7.472;2022-10-16T08:28:04;3.95;;;1.30;;
17886;SDS011;9069;52.044;7.472;2022-10-16T08:30:32;3.75;;;1.13;;
17886;SDS011;9069;52.044;7.472;2022-10-16T08:32:59;4.90;;;1.88;;
17886;SDS011;9069;52.044;7.472;2022-10-16T08:35:26;2.03;;;1.23;;
17886;SDS011;9069;52.044;7.472;2022-10-16T08:37:53;1.73;;;1.10;;
17886;SDS011;9069;52.044;7.472;2022-10-16T08:48:50;1.45;;;0.82;;
17886;SDS011;9069;52.044;7.472;2022-10-16T08:51:20;4.65;;;0.98;;
17886;SDS011;9069;52.044;7.472;2022-10-16T08:53:57;2.20;;;0.90;;
17886;SDS011;9069;52.044;7.472;2022-10-16T08:56:27;1.73;;;0.80;;
17886;SDS011;9069;52.044;7.472;2022-10-16T08:58:54;1.40;;;0.90;;
17886;SDS011;9069;52.044;7.472;2022-10-16T09:01:46;2.03;;;0.82;;
17886;SDS011;9069;52.044;7.472;2022-10-16T09:04:27;2.50;;;0.90;;
17886;SDS011;9069;52.044;7.472;2022-10-16T09:09:48;2.75;;;1.10;;
17886;SDS011;9069;52.044;7.472;2022-10-16T09:12:37;3.78;;;0.80;;
17886;SDS011;9069;52.044;7.472;2022-10-16T09:15:35;1.65;;;0.88;;
17886;SDS011;9069;52.044;7.472;2022-10-16T09:23:41;2.90;;;1.00;;
17886;SDS011;9069;52.044;7.472;2022-10-16T09:26:09;2.92;;;0.68;;
17886;SDS011;9069;52.044;7.472;2022-10-16T09:28:41;2.08;;;0.93;;
17886;SDS011;9069;52.044;7.472;2022-10-16T09:31:26;3.17;;;1.05;;
17886;SDS011;9069;52.044;7.472;2022-10-16T09:33:55;1.88;;;0.70;;
17886;SDS011;9069;52.044;7.472;2022-10-16T09:36:25;2.60;;;1.10;;
17886;SDS011;9069;52.044;7.472;2022-10-16T09:39:04;1.00;;;0.60;;
17886;SDS011;9069;52.044;7.472;2022-10-16T09:41:34;1.98;;;0.90;;
17886;SDS011;9069;52.044;7.472;2022-10-16T09:44:03;1.52;;;0.70;;
17886;SDS011;9069;52.044;7.472;2022-10-16T09:46:40;2.88;;;1.00;;
17886;SDS011;9069;52.044;7.472;2022-10-16T09:49:23;2.80;;;0.80;;
17886;SDS011;9069;52.044;7.472;2022-10-16T09:51:51;2.00;;;0.90;;
17886;SDS011;9069;52.044;7.472;2022-10-16T09:54:49;3.25;;;1.17;;
17886;SDS011;9069;52.044;7.472;2022-10-16T09:58:00;1.38;;;0.90;;
17886;SDS011;9069;52.044;7.472;2022-10-16T10:00:25;2.13;;;0.80;;
17886;SDS011;9069;52.044;7.472;2022-10-16T10:02:53;3.47;;;0.80;;
17886;SDS011;9069;52.044;7.472;2022-10-16T10:05:26;6.60;;;1.10;;
17886;SDS011;9069;52.044;7.472;2022-10-16T10:07:55;3.35;;;1.38;;
17886;SDS011;9069;52.044;7.472;2022-10-16T10:10:27;3.58;;;1.30;;
17886;SDS011;9069;52.044;7.472;2022-10-16T10:12:56;2.55;;;1.05;;
17886;SDS011;9069;52.044;7.472;2022-10-16T10:15:23;3.85;;;1.67;;
17886;SDS011;9069;52.044;7.472;2022-10-16T10:20:25;6.10;;;2.03;;
17886;SDS011;9069;52.044;7.472;2022-10-16T10:22:58;4.18;;;1.90;;
17886;SDS011;9069;52.044;7.472;2022-10-16T10:25:34;3.25;;;1.80;;
17886;SDS011;9069;52.044;7.472;2022-10-16T10:28:31;2.03;;;1.60;;
17886;SDS011;9069;52.044;7.472;2022-10-16T10:34:25;3.00;;;1.60;;
17886;SDS011;9069;52.044;7.472;2022-10-16T10:37:10;2.85;;;1.40;;
17886;SDS011;9069;52.044;7.472;2022-10-16T10:39:49;3.75;;;1.65;;
17886;SDS011;9069;52.044;7.472;2022-10-16T10:42:31;3.03;;;1.23;;
17886;SDS011;9069;52.044;7.472;2022-10-16T10:45:41;2.65;;;1.33;;
17886;SDS011;9069;52.044;7.472;2022-10-16T10:50:51;4.97;;;1.40;;
17886;SDS011;9069;52.044;7.472;2022-10-16T10:53:47;3.80;;;1.00;;
17886;SDS011;9069;52.044;7.472;2022-10-16T11:02:31;1.48;;;0.90;;
17886;SDS011;9069;52.044;7.472;2022-10-16T11:05:23;1.75;;;0.82;;
17886;SDS011;9069;52.044;7.472;2022-10-16T11:11:00;5.80;;;1.48;;
17886;SDS011;9069;52.044;7.472;2022-10-16T11:13:37;3.90;;;1.08;;
17886;SDS011;9069;52.044;7.472;2022-10-16T11:16:14;1.40;;;0.70;;
17886;SDS011;9069;52.044;7.472;2022-10-16T11:18:49;1.45;;;0.73;;
17886;SDS011;9069;52.044;7.472;2022-10-16T11:21:24;3.35;;;0.82;;
17886;SDS011;9069;52.044;7.472;2022-10-16T11:26:27;2.78;;;1.83;;
17886;SDS011;9069;52.044;7.472;2022-10-16T11:28:58;6.45;;;2.90;;
17886;SDS011;9069;52.044;7.472;2022-10-16T11:31:32;4.32;;;2.38;;
17886;SDS011;9069;52.044;7.472;2022-10-16T11:34:13;5.28;;;3.45;;
17886;SDS011;9069;52.044;7.472;2022-10-16T11:36:50;8.88;;;4.57;;
17886;SDS011;9069;52.044;7.472;2022-10-16T11:39:28;4.95;;;2.92;;
17886;SDS011;9069;52.044;7.472;2022-10-16T11:41:59;9.38;;;4.45;;
17886;SDS011;9069;52.044;7.472;2022-10-16T11:45:00;6.65;;;3.60;;
17886;SDS011;9069;52.044;7.472;2022-10-16T11:47:38;3.40;;;2.30;;
17886;SDS011;9069;52.044;7.472;2022-10-16T11:50:26;9.95;;;1.75;;
17886;SDS011;9069;52.044;7.472;2022-10-16T11:53:30;2.95;;;1.10;;
17886;SDS011;9069;52.044;7.472;2022-10-16T11:56:17;5.65;;;1.45;;
17886;SDS011;9069;52.044;7.472;2022-10-16T12:01:53;7.85;;;1.65;;
17886;SDS011;9069;52.044;7.472;2022-10-16T12:04:49;5.07;;;1.17;;
17886;SDS011;9069;52.044;7.472;2022-10-16T12:07:23;3.75;;;0.95;;
17886;SDS011;9069;52.044;7.472;2022-10-16T12:09:54;5.47;;;0.93;;
17886;SDS011;9069;52.044;7.472;2022-10-16T12:15:24;3.35;;;0.93;;
17886;SDS011;9069;52.044;7.472;2022-10-16T12:18:20;17.25;;;1.65;;
17886;SDS011;9069;52.044;7.472;2022-10-16T12:20:54;8.18;;;1.27;;
17886;SDS011;9069;52.044;7.472;2022-10-16T12:23:25;25.30;;;2.25;;
17886;SDS011;9069;52.044;7.472;2022-10-16T12:25:55;15.55;;;1.50;;
17886;SDS011;9069;52.044;7.472;2022-10-16T12:28:27;7.15;;;1.23;;
17886;SDS011;9069;52.044;7.472;2022-10-16T12:31:00;12.73;;;1.60;;
17886;SDS011;9069;52.044;7.472;2022-10-16T12:33:29;5.30;;;1.20;;
17886;SDS011;9069;52.044;7.472;2022-10-16T12:35:59;11.00;;;1.58;;
17886;SDS011;9069;52.044;7.472;2022-10-16T12:41:26;2.85;;;0.95;;
17886;SDS011;9069;52.044;7.472;2022-10-16T12:44:20;6.07;;;1.23;;
17886;SDS011;9069;52.044;7.472;2022-10-16T12:46:52;6.82;;;1.05;;
17886;SDS011;9069;52.044;7.472;2022-10-16T12:49:21;6.10;;;1.17;;
17886;SDS011;9069;52.044;7.472;2022-10-16T12:51:50;9.23;;;1.05;;
17886;SDS011;9069;52.044;7.472;2022-10-16T12:54:18;4.05;;;0.80;;
17886;SDS011;9069;52.044;7.472;2022-10-16T12:57:05;5.05;;;0.98;;
17886;SDS011;9069;52.044;7.472;2022-10-16T12:59:58;5.65;;;1.10;;
17886;SDS011;9069;52.044;7.472;2022-10-16T13:19:38;1.35;;;0.70;;
17886;SDS011;9069;52.044;7.472;2022-10-16T13:22:24;2.35;;;0.70;;
17886;SDS011;9069;52.044;7.472;2022-10-16T13:27:55;3.22;;;0.90;;
17886;SDS011;9069;52.044;7.472;2022-10-16T13:30:30;3.83;;;1.00;;
17886;SDS011;9069;52.044;7.472;2022-10-16T13:33:49;7.25;;;0.98;;
17886;SDS011;9069;52.044;7.472;2022-10-16T13:35:58;5.53;;;1.20;;
17886;SDS011;9069;52.044;7.472;2022-10-16T13:38:25;1.92;;;0.95;;
17886;SDS011;9069;52.044;7.472;2022-10-16T13:41:01;7.30;;;1.25;;
17886;SDS011;9069;52.044;7.472;2022-10-16T13:43:35;4.10;;;0.90;;
17886;SDS011;9069;52.044;7.472;2022-10-16T13:46:13;7.53;;;1.63;;
17886;SDS011;9069;52.044;7.472;2022-10-16T13:51:24;5.13;;;1.00;;
17886;SDS011;9069;52.044;7.472;2022-10-16T13:53:52;4.78;;;1.10;;
17886;SDS011;9069;52.044;7.472;2022-10-16T13:56:21;5.25;;;1.10;;
17886;SDS011;9069;52.044;7.472;2022-10-16T13:59:05;9.18;;;1.13;;
17886;SDS011;9069;52.044;7.472;2022-10-16T14:01:48;7.05;;;0.90;;
17886;SDS011;9069;52.044;7.472;2022-10-16T14:04:16;4.13;;;0.70;;
17886;SDS011;9069;52.044;7.472;2022-10-16T14:06:44;2.97;;;1.17;;
17886;SDS011;9069;52.044;7.472;2022-10-16T14:09:15;4.25;;;1.27;;
17886;SDS011;9069;52.044;7.472;2022-10-16T14:11:56;5.43;;;1.20;;
17886;SDS011;9069;52.044;7.472;2022-10-16T14:14:23;3.47;;;1.05;;
17886;SDS011;9069;52.044;7.472;2022-10-16T14:16:50;5.13;;;1.00;;
17886;SDS011;9069;52.044;7.472;2022-10-16T14:19:27;5.60;;;0.88;;
17886;SDS011;9069;52.044;7.472;2022-10-16T14:21:55;3.92;;;1.13;;
17886;SDS011;9069;52.044;7.472;2022-10-16T14:24:41;4.88;;;1.65;;
17886;SDS011;9069;52.044;7.472;2022-10-16T14:27:55;3.97;;;1.33;;
17886;SDS011;9069;52.044;7.472;2022-10-16T14:30:13;1.85;;;1.23;;
17886;SDS011;9069;52.044;7.472;2022-10-16T14:32:52;2.38;;;1.20;;
17886;SDS011;9069;52.044;7.472;2022-10-16T14:37:53;4.03;;;1.38;;
17886;SDS011;9069;52.044;7.472;2022-10-16T14:40:23;5.07;;;1.10;;
17886;SDS011;9069;52.044;7.472;2022-10-16T14:42:51;3.95;;;1.10;;
17886;SDS011;9069;52.044;7.472;2022-10-16T14:45:19;6.20;;;1.30;;
17886;SDS011;9069;52.044;7.472;2022-10-16T14:47:55;4.03;;;1.25;;
17886;SDS011;9069;52.044;7.472;2022-10-16T14:50:24;4.63;;;0.90;;
17886;SDS011;9069;52.044;7.472;2022-10-16T14:52:51;4.38;;;0.88;;
17886;SDS011;9069;52.044;7.472;2022-10-16T14:55:17;4.78;;;0.73;;
17886;SDS011;9069;52.044;7.472;2022-10-16T14:57:45;2.45;;;0.82;;
17886;SDS011;9069;52.044;7.472;2022-10-16T15:00:15;1.50;;;0.77;;
17886;SDS011;9069;52.044;7.472;2022-10-16T15:02:49;1.80;;;0.80;;
17886;SDS011;9069;52.044;7.472;2022-10-16T15:05:21;4.68;;;0.82;;
17886;SDS011;9069;52.044;7.472;2022-10-16T15:07:55;3.92;;;1.10;;
17886;SDS011;9069;52.044;7.472;2022-10-16T15:10:22;7.20;;;0.73;;
17886;SDS011;9069;52.044;7.472;2022-10-16T15:12:51;21.65;;;2.45;;
17886;SDS011;9069;52.044;7.472;2022-10-16T15:17:54;9.95;;;1.38;;
17886;SDS011;9069;52.044;7.472;2022-10-16T15:20:23;11.85;;;1.48;;
17886;SDS011;9069;52.044;7.472;2022-10-16T15:22:51;3.78;;;0.93;;
17886;SDS011;9069;52.044;7.472;2022-10-16T15:28:11;3.40;;;0.80;;
17886;SDS011;9069;52.044;7.472;2022-10-16T15:30:38;3.08;;;0.80;;
17886;SDS011;9069;52.044;7.472;2022-10-16T15:33:10;2.53;;;0.73;;
17886;SDS011;9069;52.044;7.472;2022-10-16T15:35:42;9.32;;;1.60;;
17886;SDS011;9069;52.044;7.472;2022-10-16T15:38:10;2.78;;;1.00;;
17886;SDS011;9069;52.044;7.472;2022-10-16T15:40:38;2.70;;;1.20;;
17886;SDS011;9069;52.044;7.472;2022-10-16T15:43:05;3.90;;;0.73;;
17886;SDS011;9069;52.044;7.472;2022-10-16T15:45:32;2.60;;;0.63;;
17886;SDS011;9069;52.044;7.472;2022-10-16T15:47:59;1.27;;;0.68;;
17886;SDS011;9069;52.044;7.472;2022-10-16T15:50:26;2.78;;;0.90;;
17886;SDS011;9069;52.044;7.472;2022-10-16T15:52:53;2.22;;;0.80;;
17886;SDS011;9069;52.044;7.472;2022-10-16T15:55:20;3.08;;;1.15;;
17886;SDS011;9069;52.044;7.472;2022-10-16T15:57:46;4.00;;;1.23;;
17886;SDS011;9069;52.044;7.472;2022-10-16T16:00:14;4.65;;;1.48;;
17886;SDS011;9069;52.044;7.472;2022-10-16T16:02:43;3.10;;;1.48;;
17886;SDS011;9069;52.044;7.472;2022-10-16T16:05:15;6.03;;;1.42;;
17886;SDS011;9069;52.044;7.472;2022-10-16T16:07:42;7.07;;;1.70;;
17886;SDS011;9069;52.044;7.472;2022-10-16T16:10:09;3.15;;;1.35;;
17886;SDS011;9069;52.044;7.472;2022-10-16T16:12:37;4.40;;;1.83;;
17886;SDS011;9069;52.044;7.472;2022-10-16T16:15:05;5.75;;;1.98;;
17886;SDS011;9069;52.044;7.472;2022-10-16T16:17:32;10.13;;;4.00;;
17886;SDS011;9069;52.044;7.472;2022-10-16T16:20:00;7.10;;;3.22;;
17886;SDS011;9069;52.044;7.472;2022-10-16T16:22:27;9.45;;;4.45;;
17886;SDS011;9069;52.044;7.472;2022-10-16T16:24:55;9.02;;;5.63;;
17886;SDS011;9069;52.044;7.472;2022-10-16T16:27:22;14.32;;;6.32;;
17886;SDS011;9069;52.044;7.472;2022-10-16T16:29:51;7.63;;;4.85;;
17886;SDS011;9069;52.044;7.472;2022-10-16T16:32:19;9.00;;;5.70;;
17886;SDS011;9069;52.044;7.472;2022-10-16T16:34:46;6.00;;;4.20;;
17886;SDS011;9069;52.044;7.472;2022-10-16T16:37:12;4.97;;;3.15;;
17886;SDS011;9069;52.044;7.472;2022-10-16T16:39:39;7.03;;;3.30;;
17886;SDS011;9069;52.044;7.472;2022-10-16T16:42:07;9.57;;;2.83;;
17886;SDS011;9069;52.044;7.472;2022-10-16T16:44:34;6.25;;;2.60;;
17886;SDS011;9069;52.044;7.472;2022-10-16T16:47:02;3.80;;;1.90;;
17886;SDS011;9069;52.044;7.472;2022-10-16T16:49:30;5.38;;;1.77;;
17886;SDS011;9069;52.044;7.472;2022-10-16T16:51:56;6.22;;;2.25;;
17886;SDS011;9069;52.044;7.472;2022-10-16T16:54:23;3.95;;;2.53;;
17886;SDS011;9069;52.044;7.472;2022-10-16T16:56:50;7.07;;;2.55;;
17886;SDS011;9069;52.044;7.472;2022-10-16T16:59:18;4.88;;;2.38;;